sensor_id;sensor_type;location;lat;lon;timestamp;temperature;humidity
30097;DHT22;16915;51.466;3.610;2024-02-26T00:01:41;7.00;99.90
30097;DHT22;16915;51.466;3.610;2024-02-26T00:04:09;7.00;99.90
30097;DHT22;16915;51.466;3.610;2024-02-26T00:06:35;7.00;99.90
30097;DHT22;16915;51.466;3.610;2024-02-26T00:09:00;7.00;99.90
30097;DHT22;16915;51.466;3.610;2024-02-26T00:11:28;7.00;99.90
30097;DHT22;16915;51.466;3.610;2024-02-26T00:13:53;7.00;99.90
30097;DHT22;16915;51.466;3.610;2024-02-26T00:16:19;7.00;99.90
30097;DHT22;16915;51.466;3.610;2024-02-26T00:18:44;7.00;99.90
30097;DHT22;16915;51.466;3.610;2024-02-26T00:21:10;7.00;99.90
30097;DHT22;16915;51.466;3.610;2024-02-26T00:23:35;6.90;99.90
30097;DHT22;16915;51.466;3.610;2024-02-26T00:26:01;6.90;99.90
30097;DHT22;16915;51.466;3.610;2024-02-26T00:28:26;6.90;99.90
30097;DHT22;16915;51.466;3.610;2024-02-26T00:30:54;6.90;99.90
30097;DHT22;16915;51.466;3.610;2024-02-26T00:33:21;6.90;99.90
30097;DHT22;16915;51.466;3.610;2024-02-26T00:35:48;6.90;99.90
30097;DHT22;16915;51.466;3.610;2024-02-26T00:38:13;6.80;99.90
30097;DHT22;16915;51.466;3.610;2024-02-26T00:40:39;6.80;99.90
30097;DHT22;16915;51.466;3.610;2024-02-26T00:43:09;6.80;99.90
30097;DHT22;16915;51.466;3.610;2024-02-26T00:45:35;6.80;99.90
30097;DHT22;16915;51.466;3.610;2024-02-26T00:48:00;6.70;99.90
30097;DHT22;16915;51.466;3.610;2024-02-26T00:50:33;6.70;99.90
30097;DHT22;16915;51.466;3.610;2024-02-26T00:52:59;6.70;99.90
30097;DHT22;16915;51.466;3.610;2024-02-26T00:55:25;6.70;99.90
30097;DHT22;16915;51.466;3.610;2024-02-26T00:57:50;6.70;99.90
30097;DHT22;16915;51.466;3.610;2024-02-26T01:00:16;6.70;99.90
30097;DHT22;16915;51.466;3.610;2024-02-26T01:02:41;6.60;99.90
30097;DHT22;16915;51.466;3.610;2024-02-26T01:05:08;6.60;99.90
30097;DHT22;16915;51.466;3.610;2024-02-26T01:07:36;6.60;99.90
30097;DHT22;16915;51.466;3.610;2024-02-26T01:10:02;6.60;99.90
30097;DHT22;16915;51.466;3.610;2024-02-26T01:12:28;6.60;99.90
30097;DHT22;16915;51.466;3.610;2024-02-26T01:14:54;6.60;99.90
30097;DHT22;16915;51.466;3.610;2024-02-26T01:17:19;6.50;99.90
30097;DHT22;16915;51.466;3.610;2024-02-26T01:19:45;6.50;99.90
30097;DHT22;16915;51.466;3.610;2024-02-26T01:22:10;6.50;99.90
30097;DHT22;16915;51.466;3.610;2024-02-26T01:24:36;6.50;99.90
30097;DHT22;16915;51.466;3.610;2024-02-26T01:27:02;6.50;99.90
30097;DHT22;16915;51.466;3.610;2024-02-26T01:29:27;6.60;99.90
30097;DHT22;16915;51.466;3.610;2024-02-26T01:31:53;6.50;99.90
30097;DHT22;16915;51.466;3.610;2024-02-26T01:34:18;6.60;99.90
30097;DHT22;16915;51.466;3.610;2024-02-26T01:36:44;6.50;99.90
30097;DHT22;16915;51.466;3.610;2024-02-26T01:39:10;6.50;99.90
30097;DHT22;16915;51.466;3.610;2024-02-26T01:41:38;6.50;99.90
30097;DHT22;16915;51.466;3.610;2024-02-26T01:44:04;6.50;99.90
30097;DHT22;16915;51.466;3.610;2024-02-26T01:46:30;6.60;99.90
30097;DHT22;16915;51.466;3.610;2024-02-26T01:48:56;6.60;99.90
30097;DHT22;16915;51.466;3.610;2024-02-26T01:51:22;6.60;99.90
30097;DHT22;16915;51.466;3.610;2024-02-26T01:53:48;6.60;99.90
30097;DHT22;16915;51.466;3.610;2024-02-26T01:56:15;6.60;99.90
30097;DHT22;16915;51.466;3.610;2024-02-26T01:58:42;6.60;99.90
30097;DHT22;16915;51.466;3.610;2024-02-26T02:01:08;6.60;99.90
30097;DHT22;16915;51.466;3.610;2024-02-26T02:03:35;6.60;99.90
30097;DHT22;16915;51.466;3.610;2024-02-26T02:06:02;6.60;99.90
30097;DHT22;16915;51.466;3.610;2024-02-26T02:08:28;6.60;99.90
30097;DHT22;16915;51.466;3.610;2024-02-26T02:10:53;6.50;99.90
30097;DHT22;16915;51.466;3.610;2024-02-26T02:13:19;6.50;99.90
30097;DHT22;16915;51.466;3.610;2024-02-26T02:15:44;6.50;99.90
30097;DHT22;16915;51.466;3.610;2024-02-26T02:18:10;6.50;99.90
30097;DHT22;16915;51.466;3.610;2024-02-26T02:20:36;6.50;99.90
30097;DHT22;16915;51.466;3.610;2024-02-26T02:23:02;6.50;99.90
30097;DHT22;16915;51.466;3.610;2024-02-26T02:25:28;6.50;99.90
30097;DHT22;16915;51.466;3.610;2024-02-26T02:27:54;6.50;99.90
30097;DHT22;16915;51.466;3.610;2024-02-26T02:30:30;6.50;99.90
30097;DHT22;16915;51.466;3.610;2024-02-26T02:32:57;6.50;99.90
30097;DHT22;16915;51.466;3.610;2024-02-26T02:35:24;6.50;99.90
30097;DHT22;16915;51.466;3.610;2024-02-26T02:37:55;6.50;99.90
30097;DHT22;16915;51.466;3.610;2024-02-26T02:40:21;6.50;99.90
30097;DHT22;16915;51.466;3.610;2024-02-26T02:42:46;6.40;99.90
30097;DHT22;16915;51.466;3.610;2024-02-26T02:45:12;6.40;99.90
30097;DHT22;16915;51.466;3.610;2024-02-26T02:47:37;6.40;99.90
30097;DHT22;16915;51.466;3.610;2024-02-26T02:50:03;6.40;99.90
30097;DHT22;16915;51.466;3.610;2024-02-26T02:52:29;6.40;99.90
30097;DHT22;16915;51.466;3.610;2024-02-26T02:54:55;6.40;99.90
30097;DHT22;16915;51.466;3.610;2024-02-26T02:57:20;6.40;99.90
30097;DHT22;16915;51.466;3.610;2024-02-26T02:59:46;6.30;99.90
30097;DHT22;16915;51.466;3.610;2024-02-26T03:02:12;6.40;99.90
30097;DHT22;16915;51.466;3.610;2024-02-26T03:04:37;6.30;99.90
30097;DHT22;16915;51.466;3.610;2024-02-26T03:07:03;6.40;99.90
30097;DHT22;16915;51.466;3.610;2024-02-26T03:09:28;6.30;99.90
30097;DHT22;16915;51.466;3.610;2024-02-26T03:11:54;6.30;99.90
30097;DHT22;16915;51.466;3.610;2024-02-26T03:14:20;6.20;99.90
30097;DHT22;16915;51.466;3.610;2024-02-26T03:16:45;6.20;99.90
30097;DHT22;16915;51.466;3.610;2024-02-26T03:19:13;6.20;99.90
30097;DHT22;16915;51.466;3.610;2024-02-26T03:21:39;6.10;99.90
30097;DHT22;16915;51.466;3.610;2024-02-26T03:24:05;6.10;99.90
30097;DHT22;16915;51.466;3.610;2024-02-26T03:26:31;6.10;99.90
30097;DHT22;16915;51.466;3.610;2024-02-26T03:28:56;6.10;99.90
30097;DHT22;16915;51.466;3.610;2024-02-26T03:31:22;6.10;99.90
30097;DHT22;16915;51.466;3.610;2024-02-26T03:33:47;6.10;99.90
30097;DHT22;16915;51.466;3.610;2024-02-26T03:36:13;6.10;99.90
30097;DHT22;16915;51.466;3.610;2024-02-26T03:38:39;6.00;99.90
30097;DHT22;16915;51.466;3.610;2024-02-26T03:41:04;6.00;99.90
30097;DHT22;16915;51.466;3.610;2024-02-26T03:43:30;6.00;99.90
30097;DHT22;16915;51.466;3.610;2024-02-26T03:45:55;6.00;99.90
30097;DHT22;16915;51.466;3.610;2024-02-26T03:48:21;6.00;99.90
30097;DHT22;16915;51.466;3.610;2024-02-26T03:50:46;5.90;99.90
30097;DHT22;16915;51.466;3.610;2024-02-26T03:53:12;5.90;99.90
30097;DHT22;16915;51.466;3.610;2024-02-26T03:55:38;5.90;99.90
30097;DHT22;16915;51.466;3.610;2024-02-26T03:58:04;5.90;99.90
30097;DHT22;16915;51.466;3.610;2024-02-26T04:00:29;5.90;99.90
30097;DHT22;16915;51.466;3.610;2024-02-26T04:02:55;5.90;99.90
30097;DHT22;16915;51.466;3.610;2024-02-26T04:05:21;5.90;99.90
30097;DHT22;16915;51.466;3.610;2024-02-26T04:07:46;5.90;99.90
30097;DHT22;16915;51.466;3.610;2024-02-26T04:10:12;5.90;99.90
30097;DHT22;16915;51.466;3.610;2024-02-26T04:12:41;5.80;99.90
30097;DHT22;16915;51.466;3.610;2024-02-26T04:15:08;5.80;99.90
30097;DHT22;16915;51.466;3.610;2024-02-26T04:17:34;5.80;99.90
30097;DHT22;16915;51.466;3.610;2024-02-26T04:19:59;5.80;99.90
30097;DHT22;16915;51.466;3.610;2024-02-26T04:22:25;5.80;99.90
30097;DHT22;16915;51.466;3.610;2024-02-26T04:24:51;5.80;99.90
30097;DHT22;16915;51.466;3.610;2024-02-26T04:27:16;5.80;99.90
30097;DHT22;16915;51.466;3.610;2024-02-26T04:29:42;5.80;99.90
30097;DHT22;16915;51.466;3.610;2024-02-26T04:32:07;5.80;99.90
30097;DHT22;16915;51.466;3.610;2024-02-26T04:34:33;5.70;99.90
30097;DHT22;16915;51.466;3.610;2024-02-26T04:36:58;5.80;99.90
30097;DHT22;16915;51.466;3.610;2024-02-26T04:39:24;5.70;99.90
30097;DHT22;16915;51.466;3.610;2024-02-26T04:41:49;5.70;99.90
30097;DHT22;16915;51.466;3.610;2024-02-26T04:44:15;5.70;99.90
30097;DHT22;16915;51.466;3.610;2024-02-26T04:46:40;5.70;99.90
30097;DHT22;16915;51.466;3.610;2024-02-26T04:49:06;5.70;99.90
30097;DHT22;16915;51.466;3.610;2024-02-26T04:51:32;5.60;99.90
30097;DHT22;16915;51.466;3.610;2024-02-26T04:53:57;5.60;99.90
30097;DHT22;16915;51.466;3.610;2024-02-26T04:56:23;5.60;99.90
30097;DHT22;16915;51.466;3.610;2024-02-26T04:58:49;5.60;99.90
30097;DHT22;16915;51.466;3.610;2024-02-26T05:01:15;5.60;99.90
30097;DHT22;16915;51.466;3.610;2024-02-26T05:03:42;5.70;99.90
30097;DHT22;16915;51.466;3.610;2024-02-26T05:06:08;5.60;99.90
30097;DHT22;16915;51.466;3.610;2024-02-26T05:08:34;5.60;99.90
30097;DHT22;16915;51.466;3.610;2024-02-26T05:11:02;5.60;99.90
30097;DHT22;16915;51.466;3.610;2024-02-26T05:13:28;5.60;99.90
30097;DHT22;16915;51.466;3.610;2024-02-26T05:15:54;5.60;99.90
30097;DHT22;16915;51.466;3.610;2024-02-26T05:18:21;5.60;99.90
30097;DHT22;16915;51.466;3.610;2024-02-26T05:20:47;5.60;99.90
30097;DHT22;16915;51.466;3.610;2024-02-26T05:23:12;5.50;99.90
30097;DHT22;16915;51.466;3.610;2024-02-26T05:25:38;5.60;99.90
30097;DHT22;16915;51.466;3.610;2024-02-26T05:28:04;5.50;99.90
30097;DHT22;16915;51.466;3.610;2024-02-26T05:30:29;5.50;99.90
30097;DHT22;16915;51.466;3.610;2024-02-26T05:32:55;5.50;99.90
30097;DHT22;16915;51.466;3.610;2024-02-26T05:35:21;5.50;99.90
30097;DHT22;16915;51.466;3.610;2024-02-26T05:37:46;5.50;99.90
30097;DHT22;16915;51.466;3.610;2024-02-26T05:40:12;5.50;99.90
30097;DHT22;16915;51.466;3.610;2024-02-26T05:42:38;5.50;99.90
30097;DHT22;16915;51.466;3.610;2024-02-26T05:45:03;5.50;99.90
30097;DHT22;16915;51.466;3.610;2024-02-26T05:47:32;5.50;99.90
30097;DHT22;16915;51.466;3.610;2024-02-26T05:49:58;5.50;99.90
30097;DHT22;16915;51.466;3.610;2024-02-26T05:52:26;5.50;99.90
30097;DHT22;16915;51.466;3.610;2024-02-26T05:54:52;5.50;99.90
30097;DHT22;16915;51.466;3.610;2024-02-26T05:57:17;5.50;99.90
30097;DHT22;16915;51.466;3.610;2024-02-26T05:59:44;5.50;99.90
30097;DHT22;16915;51.466;3.610;2024-02-26T06:02:09;5.50;99.90
30097;DHT22;16915;51.466;3.610;2024-02-26T06:04:35;5.50;99.90
30097;DHT22;16915;51.466;3.610;2024-02-26T06:07:00;5.50;99.90
30097;DHT22;16915;51.466;3.610;2024-02-26T06:09:26;5.60;99.90
30097;DHT22;16915;51.466;3.610;2024-02-26T06:11:51;5.60;99.90
30097;DHT22;16915;51.466;3.610;2024-02-26T06:14:17;5.60;99.90
30097;DHT22;16915;51.466;3.610;2024-02-26T06:16:44;5.60;99.90
30097;DHT22;16915;51.466;3.610;2024-02-26T06:19:10;5.60;99.90
30097;DHT22;16915;51.466;3.610;2024-02-26T06:21:36;5.60;99.90
30097;DHT22;16915;51.466;3.610;2024-02-26T06:24:02;5.60;99.90
30097;DHT22;16915;51.466;3.610;2024-02-26T06:26:27;5.60;99.90
30097;DHT22;16915;51.466;3.610;2024-02-26T06:28:58;5.60;99.90
30097;DHT22;16915;51.466;3.610;2024-02-26T06:31:24;5.60;99.90
30097;DHT22;16915;51.466;3.610;2024-02-26T06:33:49;5.60;99.90
30097;DHT22;16915;51.466;3.610;2024-02-26T06:36:16;5.60;99.90
30097;DHT22;16915;51.466;3.610;2024-02-26T06:38:41;5.60;99.90
30097;DHT22;16915;51.466;3.610;2024-02-26T06:41:07;5.60;99.90
30097;DHT22;16915;51.466;3.610;2024-02-26T06:43:33;5.60;99.90
30097;DHT22;16915;51.466;3.610;2024-02-26T06:45:58;5.60;99.90
30097;DHT22;16915;51.466;3.610;2024-02-26T06:48:24;5.60;99.90
30097;DHT22;16915;51.466;3.610;2024-02-26T06:50:50;5.60;99.90
30097;DHT22;16915;51.466;3.610;2024-02-26T06:53:15;5.60;99.90
30097;DHT22;16915;51.466;3.610;2024-02-26T06:55:42;5.60;99.90
30097;DHT22;16915;51.466;3.610;2024-02-26T06:58:08;5.60;99.90
30097;DHT22;16915;51.466;3.610;2024-02-26T07:00:34;5.60;99.90
30097;DHT22;16915;51.466;3.610;2024-02-26T07:02:59;5.60;99.90
30097;DHT22;16915;51.466;3.610;2024-02-26T07:05:25;5.60;99.90
30097;DHT22;16915;51.466;3.610;2024-02-26T07:07:51;5.60;99.90
30097;DHT22;16915;51.466;3.610;2024-02-26T07:10:16;5.60;99.90
30097;DHT22;16915;51.466;3.610;2024-02-26T07:12:42;5.60;99.90
30097;DHT22;16915;51.466;3.610;2024-02-26T07:15:09;5.60;99.90
30097;DHT22;16915;51.466;3.610;2024-02-26T07:17:35;5.60;99.90
30097;DHT22;16915;51.466;3.610;2024-02-26T07:20:01;5.60;99.90
30097;DHT22;16915;51.466;3.610;2024-02-26T07:22:29;5.60;99.90
30097;DHT22;16915;51.466;3.610;2024-02-26T07:24:55;5.60;99.90
30097;DHT22;16915;51.466;3.610;2024-02-26T07:27:20;5.60;99.90
30097;DHT22;16915;51.466;3.610;2024-02-26T07:29:46;5.60;99.90
30097;DHT22;16915;51.466;3.610;2024-02-26T07:32:12;5.60;99.90
30097;DHT22;16915;51.466;3.610;2024-02-26T07:34:38;5.60;99.90
30097;DHT22;16915;51.466;3.610;2024-02-26T07:37:09;5.60;99.90
30097;DHT22;16915;51.466;3.610;2024-02-26T07:39:35;5.60;99.90
30097;DHT22;16915;51.466;3.610;2024-02-26T07:42:00;5.60;99.90
30097;DHT22;16915;51.466;3.610;2024-02-26T07:44:26;5.60;99.90
30097;DHT22;16915;51.466;3.610;2024-02-26T07:46:51;5.60;99.90
30097;DHT22;16915;51.466;3.610;2024-02-26T07:49:17;5.60;99.90
30097;DHT22;16915;51.466;3.610;2024-02-26T07:51:42;5.60;99.90
30097;DHT22;16915;51.466;3.610;2024-02-26T07:54:08;5.60;99.90
30097;DHT22;16915;51.466;3.610;2024-02-26T07:56:34;5.60;99.90
30097;DHT22;16915;51.466;3.610;2024-02-26T07:58:59;5.60;99.90
30097;DHT22;16915;51.466;3.610;2024-02-26T08:01:25;5.60;99.90
30097;DHT22;16915;51.466;3.610;2024-02-26T08:03:55;5.60;99.90
30097;DHT22;16915;51.466;3.610;2024-02-26T08:06:21;5.60;99.90
30097;DHT22;16915;51.466;3.610;2024-02-26T08:08:46;5.60;99.90
30097;DHT22;16915;51.466;3.610;2024-02-26T08:11:14;5.60;99.90
30097;DHT22;16915;51.466;3.610;2024-02-26T08:13:40;5.60;99.90
30097;DHT22;16915;51.466;3.610;2024-02-26T08:16:06;5.60;99.90
30097;DHT22;16915;51.466;3.610;2024-02-26T08:18:31;5.50;99.90
30097;DHT22;16915;51.466;3.610;2024-02-26T08:20:57;5.60;99.90
30097;DHT22;16915;51.466;3.610;2024-02-26T08:23:23;5.60;99.90
30097;DHT22;16915;51.466;3.610;2024-02-26T08:25:49;5.60;99.90
30097;DHT22;16915;51.466;3.610;2024-02-26T08:28:14;5.50;99.90
30097;DHT22;16915;51.466;3.610;2024-02-26T08:30:43;5.60;99.90
30097;DHT22;16915;51.466;3.610;2024-02-26T08:33:08;5.50;99.90
30097;DHT22;16915;51.466;3.610;2024-02-26T08:35:35;5.60;99.90
30097;DHT22;16915;51.466;3.610;2024-02-26T08:38:01;5.60;99.90
30097;DHT22;16915;51.466;3.610;2024-02-26T08:40:26;5.60;99.90
30097;DHT22;16915;51.466;3.610;2024-02-26T08:42:52;5.60;99.90
30097;DHT22;16915;51.466;3.610;2024-02-26T08:45:17;5.60;99.90
30097;DHT22;16915;51.466;3.610;2024-02-26T08:47:45;5.60;99.90
30097;DHT22;16915;51.466;3.610;2024-02-26T08:50:10;5.60;99.90
30097;DHT22;16915;51.466;3.610;2024-02-26T08:52:37;5.60;99.90
30097;DHT22;16915;51.466;3.610;2024-02-26T08:55:03;5.60;99.90
30097;DHT22;16915;51.466;3.610;2024-02-26T08:57:31;5.60;99.90
30097;DHT22;16915;51.466;3.610;2024-02-26T08:59:58;5.70;99.90
30097;DHT22;16915;51.466;3.610;2024-02-26T09:02:23;5.70;99.90
30097;DHT22;16915;51.466;3.610;2024-02-26T09:04:49;5.70;99.90
30097;DHT22;16915;51.466;3.610;2024-02-26T09:07:16;5.70;99.90
30097;DHT22;16915;51.466;3.610;2024-02-26T09:09:42;5.70;99.90
30097;DHT22;16915;51.466;3.610;2024-02-26T09:12:07;5.70;99.90
30097;DHT22;16915;51.466;3.610;2024-02-26T09:14:33;5.70;99.90
30097;DHT22;16915;51.466;3.610;2024-02-26T09:16:58;5.70;99.90
30097;DHT22;16915;51.466;3.610;2024-02-26T09:19:26;5.80;99.90
30097;DHT22;16915;51.466;3.610;2024-02-26T09:21:55;5.80;99.90
30097;DHT22;16915;51.466;3.610;2024-02-26T09:24:23;5.80;99.90
30097;DHT22;16915;51.466;3.610;2024-02-26T09:26:49;5.80;99.90
30097;DHT22;16915;51.466;3.610;2024-02-26T09:29:14;5.80;99.90
30097;DHT22;16915;51.466;3.610;2024-02-26T09:31:40;5.80;99.90
30097;DHT22;16915;51.466;3.610;2024-02-26T09:34:07;5.80;99.90
30097;DHT22;16915;51.466;3.610;2024-02-26T09:36:33;5.80;99.90
30097;DHT22;16915;51.466;3.610;2024-02-26T09:38:59;5.80;99.90
30097;DHT22;16915;51.466;3.610;2024-02-26T09:41:27;5.80;99.90
30097;DHT22;16915;51.466;3.610;2024-02-26T09:43:56;5.80;99.90
30097;DHT22;16915;51.466;3.610;2024-02-26T09:46:23;5.80;99.90
30097;DHT22;16915;51.466;3.610;2024-02-26T09:48:49;5.80;99.90
30097;DHT22;16915;51.466;3.610;2024-02-26T09:51:15;5.80;99.90
30097;DHT22;16915;51.466;3.610;2024-02-26T09:53:43;5.70;99.90
30097;DHT22;16915;51.466;3.610;2024-02-26T09:56:11;5.80;99.90
30097;DHT22;16915;51.466;3.610;2024-02-26T09:58:39;5.80;99.90
30097;DHT22;16915;51.466;3.610;2024-02-26T10:01:10;5.80;99.90
30097;DHT22;16915;51.466;3.610;2024-02-26T10:03:41;5.70;99.90
30097;DHT22;16915;51.466;3.610;2024-02-26T10:06:08;5.80;99.90
30097;DHT22;16915;51.466;3.610;2024-02-26T10:08:35;5.70;99.90
30097;DHT22;16915;51.466;3.610;2024-02-26T10:11:01;5.70;99.90
30097;DHT22;16915;51.466;3.610;2024-02-26T10:13:26;5.70;99.90
30097;DHT22;16915;51.466;3.610;2024-02-26T10:15:52;5.70;99.90
30097;DHT22;16915;51.466;3.610;2024-02-26T10:18:20;5.70;99.90
30097;DHT22;16915;51.466;3.610;2024-02-26T10:21:01;5.70;99.90
30097;DHT22;16915;51.466;3.610;2024-02-26T10:23:27;5.70;99.90
30097;DHT22;16915;51.466;3.610;2024-02-26T10:25:56;5.70;99.90
30097;DHT22;16915;51.466;3.610;2024-02-26T10:28:22;5.70;99.90
30097;DHT22;16915;51.466;3.610;2024-02-26T10:30:48;5.70;99.90
30097;DHT22;16915;51.466;3.610;2024-02-26T10:33:13;5.70;99.90
30097;DHT22;16915;51.466;3.610;2024-02-26T10:35:40;5.80;99.90
30097;DHT22;16915;51.466;3.610;2024-02-26T10:38:07;5.80;99.90
30097;DHT22;16915;51.466;3.610;2024-02-26T10:40:32;5.80;99.90
30097;DHT22;16915;51.466;3.610;2024-02-26T10:42:58;5.80;99.90
30097;DHT22;16915;51.466;3.610;2024-02-26T10:45:24;5.80;99.90
30097;DHT22;16915;51.466;3.610;2024-02-26T10:47:50;5.80;99.90
30097;DHT22;16915;51.466;3.610;2024-02-26T10:50:16;5.80;99.90
30097;DHT22;16915;51.466;3.610;2024-02-26T10:52:42;5.80;99.90
30097;DHT22;16915;51.466;3.610;2024-02-26T10:55:13;5.90;99.90
30097;DHT22;16915;51.466;3.610;2024-02-26T10:57:41;5.90;99.90
30097;DHT22;16915;51.466;3.610;2024-02-26T11:00:08;5.90;99.90
30097;DHT22;16915;51.466;3.610;2024-02-26T11:02:38;5.90;99.90
30097;DHT22;16915;51.466;3.610;2024-02-26T11:05:06;5.90;99.90
30097;DHT22;16915;51.466;3.610;2024-02-26T11:07:35;5.90;99.90
30097;DHT22;16915;51.466;3.610;2024-02-26T11:10:03;5.90;99.90
30097;DHT22;16915;51.466;3.610;2024-02-26T11:12:31;5.90;99.90
30097;DHT22;16915;51.466;3.610;2024-02-26T11:14:57;5.90;99.90
30097;DHT22;16915;51.466;3.610;2024-02-26T11:17:27;5.90;99.90
30097;DHT22;16915;51.466;3.610;2024-02-26T11:19:55;5.90;99.90
30097;DHT22;16915;51.466;3.610;2024-02-26T11:22:21;5.90;99.90
30097;DHT22;16915;51.466;3.610;2024-02-26T11:24:55;5.90;99.90
30097;DHT22;16915;51.466;3.610;2024-02-26T11:27:29;6.00;99.90
30097;DHT22;16915;51.466;3.610;2024-02-26T11:29:56;6.00;99.90
30097;DHT22;16915;51.466;3.610;2024-02-26T11:32:26;6.00;99.90
30097;DHT22;16915;51.466;3.610;2024-02-26T11:34:53;6.10;99.90
30097;DHT22;16915;51.466;3.610;2024-02-26T11:37:19;6.10;99.90
30097;DHT22;16915;51.466;3.610;2024-02-26T11:39:45;6.10;99.90
30097;DHT22;16915;51.466;3.610;2024-02-26T11:42:14;6.10;99.90
30097;DHT22;16915;51.466;3.610;2024-02-26T11:44:40;6.10;99.90
30097;DHT22;16915;51.466;3.610;2024-02-26T11:47:14;6.10;99.90
30097;DHT22;16915;51.466;3.610;2024-02-26T11:49:43;6.20;99.90
30097;DHT22;16915;51.466;3.610;2024-02-26T11:52:09;6.10;99.90
30097;DHT22;16915;51.466;3.610;2024-02-26T11:54:51;6.10;99.90
30097;DHT22;16915;51.466;3.610;2024-02-26T11:57:38;6.10;99.90
30097;DHT22;16915;51.466;3.610;2024-02-26T12:02:46;6.30;99.90
30097;DHT22;16915;51.466;3.610;2024-02-26T12:05:16;6.40;99.90
30097;DHT22;16915;51.466;3.610;2024-02-26T12:07:47;6.40;99.90
30097;DHT22;16915;51.466;3.610;2024-02-26T12:10:15;6.40;99.90
30097;DHT22;16915;51.466;3.610;2024-02-26T12:12:41;6.40;99.90
30097;DHT22;16915;51.466;3.610;2024-02-26T12:15:08;6.30;99.90
30097;DHT22;16915;51.466;3.610;2024-02-26T12:17:36;6.40;99.90
30097;DHT22;16915;51.466;3.610;2024-02-26T12:20:11;6.40;99.90
30097;DHT22;16915;51.466;3.610;2024-02-26T12:22:40;6.40;99.90
30097;DHT22;16915;51.466;3.610;2024-02-26T12:25:08;6.40;99.90
30097;DHT22;16915;51.466;3.610;2024-02-26T12:27:34;6.50;99.90
30097;DHT22;16915;51.466;3.610;2024-02-26T12:30:01;6.60;99.90
30097;DHT22;16915;51.466;3.610;2024-02-26T12:32:26;6.60;99.90
30097;DHT22;16915;51.466;3.610;2024-02-26T12:34:52;6.60;99.90
30097;DHT22;16915;51.466;3.610;2024-02-26T12:37:17;6.70;99.90
30097;DHT22;16915;51.466;3.610;2024-02-26T12:39:43;6.70;99.90
30097;DHT22;16915;51.466;3.610;2024-02-26T12:42:09;6.70;99.90
30097;DHT22;16915;51.466;3.610;2024-02-26T12:44:35;6.70;99.90
30097;DHT22;16915;51.466;3.610;2024-02-26T12:47:04;6.70;99.90
30097;DHT22;16915;51.466;3.610;2024-02-26T12:49:30;6.70;99.90
30097;DHT22;16915;51.466;3.610;2024-02-26T12:51:55;6.80;99.90
30097;DHT22;16915;51.466;3.610;2024-02-26T12:54:28;6.80;99.90
30097;DHT22;16915;51.466;3.610;2024-02-26T12:56:54;6.80;99.90
30097;DHT22;16915;51.466;3.610;2024-02-26T12:59:20;6.80;99.90
30097;DHT22;16915;51.466;3.610;2024-02-26T13:01:46;6.80;99.90
30097;DHT22;16915;51.466;3.610;2024-02-26T13:04:12;6.80;99.90
30097;DHT22;16915;51.466;3.610;2024-02-26T13:06:38;6.80;99.90
30097;DHT22;16915;51.466;3.610;2024-02-26T13:09:03;6.80;99.90
30097;DHT22;16915;51.466;3.610;2024-02-26T13:11:29;6.80;99.90
30097;DHT22;16915;51.466;3.610;2024-02-26T13:13:56;6.80;99.90
30097;DHT22;16915;51.466;3.610;2024-02-26T13:16:24;6.90;99.90
30097;DHT22;16915;51.466;3.610;2024-02-26T13:18:50;6.80;99.90
30097;DHT22;16915;51.466;3.610;2024-02-26T13:21:16;6.80;99.90
30097;DHT22;16915;51.466;3.610;2024-02-26T13:23:43;6.80;99.90
30097;DHT22;16915;51.466;3.610;2024-02-26T13:26:13;6.90;99.90
30097;DHT22;16915;51.466;3.610;2024-02-26T13:28:40;6.80;99.90
30097;DHT22;16915;51.466;3.610;2024-02-26T13:31:06;6.80;99.90
30097;DHT22;16915;51.466;3.610;2024-02-26T13:33:33;6.90;99.90
30097;DHT22;16915;51.466;3.610;2024-02-26T13:36:00;7.00;99.90
30097;DHT22;16915;51.466;3.610;2024-02-26T13:38:26;6.90;99.90
30097;DHT22;16915;51.466;3.610;2024-02-26T13:40:52;6.90;99.90
30097;DHT22;16915;51.466;3.610;2024-02-26T13:43:19;7.00;99.90
30097;DHT22;16915;51.466;3.610;2024-02-26T13:45:44;7.00;99.90
30097;DHT22;16915;51.466;3.610;2024-02-26T13:48:11;7.10;99.90
30097;DHT22;16915;51.466;3.610;2024-02-26T13:50:40;7.10;99.90
30097;DHT22;16915;51.466;3.610;2024-02-26T13:53:06;7.10;99.90
30097;DHT22;16915;51.466;3.610;2024-02-26T13:55:32;7.10;99.90
30097;DHT22;16915;51.466;3.610;2024-02-26T13:57:58;7.20;99.90
30097;DHT22;16915;51.466;3.610;2024-02-26T14:00:29;7.20;99.90
30097;DHT22;16915;51.466;3.610;2024-02-26T14:02:58;7.20;99.90
30097;DHT22;16915;51.466;3.610;2024-02-26T14:05:23;7.20;99.90
30097;DHT22;16915;51.466;3.610;2024-02-26T14:07:49;7.10;99.90
30097;DHT22;16915;51.466;3.610;2024-02-26T14:10:14;7.10;99.90
30097;DHT22;16915;51.466;3.610;2024-02-26T14:12:41;7.10;99.90
30097;DHT22;16915;51.466;3.610;2024-02-26T14:15:07;7.20;99.90
30097;DHT22;16915;51.466;3.610;2024-02-26T14:17:33;7.20;99.90
30097;DHT22;16915;51.466;3.610;2024-02-26T14:19:59;7.20;99.90
30097;DHT22;16915;51.466;3.610;2024-02-26T14:22:25;7.20;99.90
30097;DHT22;16915;51.466;3.610;2024-02-26T14:24:52;7.20;99.90
30097;DHT22;16915;51.466;3.610;2024-02-26T14:27:18;7.10;99.90
30097;DHT22;16915;51.466;3.610;2024-02-26T14:29:46;7.10;99.90
30097;DHT22;16915;51.466;3.610;2024-02-26T14:32:12;7.10;99.90
30097;DHT22;16915;51.466;3.610;2024-02-26T14:34:37;7.10;99.90
30097;DHT22;16915;51.466;3.610;2024-02-26T14:37:03;7.20;99.90
30097;DHT22;16915;51.466;3.610;2024-02-26T14:39:31;7.10;99.90
30097;DHT22;16915;51.466;3.610;2024-02-26T14:41:57;7.10;99.90
30097;DHT22;16915;51.466;3.610;2024-02-26T14:44:23;7.10;99.90
30097;DHT22;16915;51.466;3.610;2024-02-26T14:46:50;7.10;99.90
30097;DHT22;16915;51.466;3.610;2024-02-26T14:49:15;7.10;99.90
30097;DHT22;16915;51.466;3.610;2024-02-26T14:51:41;7.00;99.90
30097;DHT22;16915;51.466;3.610;2024-02-26T14:54:06;7.00;99.90
30097;DHT22;16915;51.466;3.610;2024-02-26T14:56:32;7.00;99.90
30097;DHT22;16915;51.466;3.610;2024-02-26T14:58:58;6.90;99.90
30097;DHT22;16915;51.466;3.610;2024-02-26T15:01:23;6.90;99.90
30097;DHT22;16915;51.466;3.610;2024-02-26T15:03:49;6.90;99.90
30097;DHT22;16915;51.466;3.610;2024-02-26T15:06:15;6.90;99.90
30097;DHT22;16915;51.466;3.610;2024-02-26T15:08:40;7.00;99.90
30097;DHT22;16915;51.466;3.610;2024-02-26T15:11:06;6.90;99.90
30097;DHT22;16915;51.466;3.610;2024-02-26T15:13:33;6.90;99.90
30097;DHT22;16915;51.466;3.610;2024-02-26T15:15:59;7.00;99.90
30097;DHT22;16915;51.466;3.610;2024-02-26T15:18:24;7.00;99.90
30097;DHT22;16915;51.466;3.610;2024-02-26T15:20:51;7.00;99.90
30097;DHT22;16915;51.466;3.610;2024-02-26T15:23:16;7.10;99.90
30097;DHT22;16915;51.466;3.610;2024-02-26T15:25:43;7.10;99.90
30097;DHT22;16915;51.466;3.610;2024-02-26T15:28:08;7.20;99.90
30097;DHT22;16915;51.466;3.610;2024-02-26T15:30:36;7.20;99.90
30097;DHT22;16915;51.466;3.610;2024-02-26T15:33:02;7.20;99.90
30097;DHT22;16915;51.466;3.610;2024-02-26T15:35:29;7.30;99.90
30097;DHT22;16915;51.466;3.610;2024-02-26T15:37:54;7.30;99.90
30097;DHT22;16915;51.466;3.610;2024-02-26T15:40:20;7.30;99.90
30097;DHT22;16915;51.466;3.610;2024-02-26T15:42:47;7.30;99.90